sensor_id;sensor_type;location;lat;lon;timestamp;temperature;humidity
25939;DHT22;13739;51.172;4.466;2022-08-04T00:00:09;24.40;99.90
25939;DHT22;13739;51.172;4.466;2022-08-04T00:05:32;24.20;99.90
25939;DHT22;13739;51.172;4.466;2022-08-04T00:10:48;24.10;99.90
25939;DHT22;13739;51.172;4.466;2022-08-04T00:13:16;24.00;99.90
25939;DHT22;13739;51.172;4.466;2022-08-04T00:15:50;24.00;99.90
25939;DHT22;13739;51.172;4.466;2022-08-04T00:18:22;23.90;99.90
25939;DHT22;13739;51.172;4.466;2022-08-04T00:20:51;24.00;99.90
25939;DHT22;13739;51.172;4.466;2022-08-04T00:23:18;24.00;99.90
25939;DHT22;13739;51.172;4.466;2022-08-04T00:25:44;23.90;99.90
25939;DHT22;13739;51.172;4.466;2022-08-04T00:28:09;23.80;99.90
25939;DHT22;13739;51.172;4.466;2022-08-04T00:30:36;23.80;99.90
25939;DHT22;13739;51.172;4.466;2022-08-04T00:33:02;23.80;99.90
25939;DHT22;13739;51.172;4.466;2022-08-04T00:35:28;23.90;99.90
25939;DHT22;13739;51.172;4.466;2022-08-04T00:37:54;23.90;99.90
25939;DHT22;13739;51.172;4.466;2022-08-04T00:40:35;23.80;99.90
25939;DHT22;13739;51.172;4.466;2022-08-04T00:43:18;23.80;99.90
25939;DHT22;13739;51.172;4.466;2022-08-04T00:48:55;23.60;99.90
25939;DHT22;13739;51.172;4.466;2022-08-04T01:00:06;23.60;99.90
25939;DHT22;13739;51.172;4.466;2022-08-04T01:05:48;23.50;99.90
25939;DHT22;13739;51.172;4.466;2022-08-04T01:08:38;23.40;99.90
25939;DHT22;13739;51.172;4.466;2022-08-04T01:13:48;23.60;99.90
25939;DHT22;13739;51.172;4.466;2022-08-04T01:16:26;23.50;99.90
25939;DHT22;13739;51.172;4.466;2022-08-04T01:21:53;23.40;99.90
25939;DHT22;13739;51.172;4.466;2022-08-04T01:29:54;23.70;99.90
25939;DHT22;13739;51.172;4.466;2022-08-04T01:35:17;23.90;99.90
25939;DHT22;13739;51.172;4.466;2022-08-04T01:40:30;23.50;99.90
25939;DHT22;13739;51.172;4.466;2022-08-04T01:42:57;23.50;99.90
25939;DHT22;13739;51.172;4.466;2022-08-04T01:45:25;23.30;99.90
25939;DHT22;13739;51.172;4.466;2022-08-04T01:47:54;23.30;99.90
25939;DHT22;13739;51.172;4.466;2022-08-04T01:50:21;23.20;99.90
25939;DHT22;13739;51.172;4.466;2022-08-04T01:52:49;23.10;99.90
25939;DHT22;13739;51.172;4.466;2022-08-04T01:55:17;23.40;99.90
25939;DHT22;13739;51.172;4.466;2022-08-04T01:57:47;23.50;99.90
25939;DHT22;13739;51.172;4.466;2022-08-04T02:00:16;23.50;99.90
25939;DHT22;13739;51.172;4.466;2022-08-04T02:02:44;23.50;99.90
25939;DHT22;13739;51.172;4.466;2022-08-04T02:05:11;23.30;99.90
25939;DHT22;13739;51.172;4.466;2022-08-04T02:10:50;23.30;99.90
25939;DHT22;13739;51.172;4.466;2022-08-04T02:13:32;23.20;99.90
25939;DHT22;13739;51.172;4.466;2022-08-04T02:21:15;23.00;99.90
25939;DHT22;13739;51.172;4.466;2022-08-04T02:23:47;23.10;99.90
25939;DHT22;13739;51.172;4.466;2022-08-04T02:26:16;23.10;99.90
25939;DHT22;13739;51.172;4.466;2022-08-04T02:29:07;23.10;99.90
25939;DHT22;13739;51.172;4.466;2022-08-04T02:31:58;23.20;99.90
25939;DHT22;13739;51.172;4.466;2022-08-04T02:36:58;23.00;99.90
25939;DHT22;13739;51.172;4.466;2022-08-04T02:39:27;23.00;99.90
25939;DHT22;13739;51.172;4.466;2022-08-04T02:41:56;23.10;99.90
25939;DHT22;13739;51.172;4.466;2022-08-04T02:44:26;23.00;99.90
25939;DHT22;13739;51.172;4.466;2022-08-04T02:46:53;23.00;99.90
25939;DHT22;13739;51.172;4.466;2022-08-04T02:49:22;22.90;99.90
25939;DHT22;13739;51.172;4.466;2022-08-04T02:51:56;22.90;99.90
25939;DHT22;13739;51.172;4.466;2022-08-04T02:54:27;22.90;99.90
25939;DHT22;13739;51.172;4.466;2022-08-04T02:56:56;23.00;99.90
25939;DHT22;13739;51.172;4.466;2022-08-04T02:59:26;23.10;99.90
25939;DHT22;13739;51.172;4.466;2022-08-04T03:01:55;23.10;99.90
25939;DHT22;13739;51.172;4.466;2022-08-04T03:04:54;23.00;99.90
25939;DHT22;13739;51.172;4.466;2022-08-04T03:10:25;22.90;99.90
25939;DHT22;13739;51.172;4.466;2022-08-04T03:30:03;22.80;99.90
25939;DHT22;13739;51.172;4.466;2022-08-04T03:35:35;22.80;99.90
25939;DHT22;13739;51.172;4.466;2022-08-04T04:04:30;22.50;99.90
25939;DHT22;13739;51.172;4.466;2022-08-04T04:18:00;22.40;99.90
25939;DHT22;13739;51.172;4.466;2022-08-04T04:20:55;22.40;99.90
25939;DHT22;13739;51.172;4.466;2022-08-04T04:28:57;22.50;99.90
25939;DHT22;13739;51.172;4.466;2022-08-04T04:39:08;22.60;99.90
25939;DHT22;13739;51.172;4.466;2022-08-04T04:44:32;22.70;99.90
25939;DHT22;13739;51.172;4.466;2022-08-04T04:50:41;22.80;99.90
25939;DHT22;13739;51.172;4.466;2022-08-04T04:53:03;22.90;99.90
25939;DHT22;13739;51.172;4.466;2022-08-04T04:55:38;22.90;99.90
25939;DHT22;13739;51.172;4.466;2022-08-04T04:58:10;22.80;99.90
25939;DHT22;13739;51.172;4.466;2022-08-04T05:01:05;22.80;99.90
25939;DHT22;13739;51.172;4.466;2022-08-04T05:12:11;22.80;99.90
25939;DHT22;13739;51.172;4.466;2022-08-04T05:14:49;22.80;99.90
25939;DHT22;13739;51.172;4.466;2022-08-04T05:17:35;22.80;99.90
25939;DHT22;13739;51.172;4.466;2022-08-04T05:20:07;23.00;99.90
25939;DHT22;13739;51.172;4.466;2022-08-04T05:22:39;22.90;99.90
25939;DHT22;13739;51.172;4.466;2022-08-04T05:25:18;23.00;99.90
25939;DHT22;13739;51.172;4.466;2022-08-04T05:28:03;23.00;99.90
25939;DHT22;13739;51.172;4.466;2022-08-04T05:30:31;23.10;99.90
25939;DHT22;13739;51.172;4.466;2022-08-04T05:33:02;23.20;99.90
25939;DHT22;13739;51.172;4.466;2022-08-04T05:35:40;23.10;99.90
25939;DHT22;13739;51.172;4.466;2022-08-04T05:38:10;23.10;99.90
25939;DHT22;13739;51.172;4.466;2022-08-04T05:40:37;23.20;99.90
25939;DHT22;13739;51.172;4.466;2022-08-04T05:43:04;23.20;99.90
25939;DHT22;13739;51.172;4.466;2022-08-04T05:45:33;23.20;99.90
25939;DHT22;13739;51.172;4.466;2022-08-04T05:48:01;23.20;99.90
25939;DHT22;13739;51.172;4.466;2022-08-04T05:50:29;23.30;99.90
25939;DHT22;13739;51.172;4.466;2022-08-04T05:52:57;23.20;99.90
25939;DHT22;13739;51.172;4.466;2022-08-04T05:55:24;23.40;99.90
25939;DHT22;13739;51.172;4.466;2022-08-04T05:57:50;23.50;99.90
25939;DHT22;13739;51.172;4.466;2022-08-04T06:00:17;23.50;99.90
25939;DHT22;13739;51.172;4.466;2022-08-04T06:02:45;23.50;99.90
25939;DHT22;13739;51.172;4.466;2022-08-04T06:05:14;23.60;99.90
25939;DHT22;13739;51.172;4.466;2022-08-04T06:07:42;23.60;99.90
25939;DHT22;13739;51.172;4.466;2022-08-04T06:10:08;23.40;99.90
25939;DHT22;13739;51.172;4.466;2022-08-04T06:12:46;23.50;99.90
25939;DHT22;13739;51.172;4.466;2022-08-04T06:15:17;23.60;99.90
25939;DHT22;13739;51.172;4.466;2022-08-04T06:17:53;23.70;99.90
25939;DHT22;13739;51.172;4.466;2022-08-04T06:20:21;23.60;99.90
25939;DHT22;13739;51.172;4.466;2022-08-04T06:22:51;23.50;99.90
25939;DHT22;13739;51.172;4.466;2022-08-04T06:25:21;23.70;99.90
25939;DHT22;13739;51.172;4.466;2022-08-04T06:27:48;23.80;99.90
25939;DHT22;13739;51.172;4.466;2022-08-04T06:30:15;24.00;99.90
25939;DHT22;13739;51.172;4.466;2022-08-04T06:32:44;23.70;99.90
25939;DHT22;13739;51.172;4.466;2022-08-04T06:35:15;23.80;99.90
25939;DHT22;13739;51.172;4.466;2022-08-04T06:37:43;23.80;99.90
25939;DHT22;13739;51.172;4.466;2022-08-04T06:40:12;23.80;99.90
25939;DHT22;13739;51.172;4.466;2022-08-04T06:42:38;24.00;99.90
25939;DHT22;13739;51.172;4.466;2022-08-04T06:45:05;23.90;99.90
25939;DHT22;13739;51.172;4.466;2022-08-04T06:47:31;23.90;99.90
25939;DHT22;13739;51.172;4.466;2022-08-04T06:49:57;23.80;99.90
25939;DHT22;13739;51.172;4.466;2022-08-04T06:52:24;24.20;99.90
25939;DHT22;13739;51.172;4.466;2022-08-04T06:54:51;24.00;99.90
25939;DHT22;13739;51.172;4.466;2022-08-04T06:57:19;23.90;99.90
25939;DHT22;13739;51.172;4.466;2022-08-04T06:59:49;24.00;99.90
25939;DHT22;13739;51.172;4.466;2022-08-04T07:02:20;24.00;99.90
25939;DHT22;13739;51.172;4.466;2022-08-04T07:04:48;24.00;99.90
25939;DHT22;13739;51.172;4.466;2022-08-04T07:07:14;24.10;99.90
25939;DHT22;13739;51.172;4.466;2022-08-04T07:09:41;24.10;99.90
25939;DHT22;13739;51.172;4.466;2022-08-04T07:12:07;24.00;99.90
25939;DHT22;13739;51.172;4.466;2022-08-04T07:14:34;24.30;99.90
25939;DHT22;13739;51.172;4.466;2022-08-04T07:17:05;24.10;99.90
25939;DHT22;13739;51.172;4.466;2022-08-04T07:19:33;23.90;99.90
25939;DHT22;13739;51.172;4.466;2022-08-04T07:22:03;24.00;99.90
25939;DHT22;13739;51.172;4.466;2022-08-04T07:24:32;24.20;99.90
25939;DHT22;13739;51.172;4.466;2022-08-04T07:26:58;24.30;99.90
25939;DHT22;13739;51.172;4.466;2022-08-04T07:29:25;24.20;99.90
25939;DHT22;13739;51.172;4.466;2022-08-04T07:31:54;24.20;99.90
25939;DHT22;13739;51.172;4.466;2022-08-04T07:34:21;24.20;99.90
25939;DHT22;13739;51.172;4.466;2022-08-04T07:36:48;24.30;99.90
25939;DHT22;13739;51.172;4.466;2022-08-04T07:39:14;24.40;99.90
25939;DHT22;13739;51.172;4.466;2022-08-04T07:41:41;24.60;99.90
25939;DHT22;13739;51.172;4.466;2022-08-04T07:44:08;24.60;99.90
25939;DHT22;13739;51.172;4.466;2022-08-04T07:46:35;24.40;99.90
25939;DHT22;13739;51.172;4.466;2022-08-04T07:49:02;24.10;99.90
25939;DHT22;13739;51.172;4.466;2022-08-04T07:51:28;24.10;99.90
25939;DHT22;13739;51.172;4.466;2022-08-04T07:53:56;24.30;99.90
25939;DHT22;13739;51.172;4.466;2022-08-04T07:56:22;24.60;99.90
25939;DHT22;13739;51.172;4.466;2022-08-04T07:58:48;24.50;99.90
25939;DHT22;13739;51.172;4.466;2022-08-04T08:01:15;24.60;99.90
25939;DHT22;13739;51.172;4.466;2022-08-04T08:03:41;24.80;99.90
25939;DHT22;13739;51.172;4.466;2022-08-04T08:06:07;25.00;99.90
25939;DHT22;13739;51.172;4.466;2022-08-04T08:08:37;25.20;99.90
25939;DHT22;13739;51.172;4.466;2022-08-04T08:11:04;25.30;99.90
25939;DHT22;13739;51.172;4.466;2022-08-04T08:13:30;25.10;99.90
25939;DHT22;13739;51.172;4.466;2022-08-04T08:15:56;25.00;99.90
25939;DHT22;13739;51.172;4.466;2022-08-04T08:18:23;25.00;99.90
25939;DHT22;13739;51.172;4.466;2022-08-04T08:20:49;24.90;99.90
25939;DHT22;13739;51.172;4.466;2022-08-04T08:23:17;24.70;99.90
25939;DHT22;13739;51.172;4.466;2022-08-04T08:25:43;24.50;99.90
25939;DHT22;13739;51.172;4.466;2022-08-04T08:28:09;24.20;99.90
25939;DHT22;13739;51.172;4.466;2022-08-04T08:30:35;24.20;99.90
25939;DHT22;13739;51.172;4.466;2022-08-04T08:33:04;24.20;99.90
25939;DHT22;13739;51.172;4.466;2022-08-04T08:36:22;24.30;99.90
25939;DHT22;13739;51.172;4.466;2022-08-04T08:38:26;24.30;99.90
25939;DHT22;13739;51.172;4.466;2022-08-04T08:41:06;24.40;99.90
25939;DHT22;13739;51.172;4.466;2022-08-04T08:46:41;23.90;99.90
25939;DHT22;13739;51.172;4.466;2022-08-04T08:52:16;23.90;99.90
25939;DHT22;13739;51.172;4.466;2022-08-04T08:55:10;23.90;99.90
25939;DHT22;13739;51.172;4.466;2022-08-04T09:00:41;23.30;99.90
25939;DHT22;13739;51.172;4.466;2022-08-04T09:08:54;23.20;99.90
25939;DHT22;13739;51.172;4.466;2022-08-04T09:11:25;23.40;99.90
25939;DHT22;13739;51.172;4.466;2022-08-04T09:16:48;23.50;99.90
25939;DHT22;13739;51.172;4.466;2022-08-04T09:19:20;23.50;99.90
25939;DHT22;13739;51.172;4.466;2022-08-04T09:21:57;23.40;99.90
25939;DHT22;13739;51.172;4.466;2022-08-04T09:24:56;23.50;99.90
25939;DHT22;13739;51.172;4.466;2022-08-04T09:27:46;23.20;99.90
25939;DHT22;13739;51.172;4.466;2022-08-04T09:30:17;23.30;99.90
25939;DHT22;13739;51.172;4.466;2022-08-04T09:35:56;23.00;99.90
25939;DHT22;13739;51.172;4.466;2022-08-04T09:40:58;23.00;99.90
25939;DHT22;13739;51.172;4.466;2022-08-04T09:46:22;23.30;99.90
25939;DHT22;13739;51.172;4.466;2022-08-04T09:52:05;23.20;99.90
25939;DHT22;13739;51.172;4.466;2022-08-04T09:54:42;23.00;99.90
25939;DHT22;13739;51.172;4.466;2022-08-04T10:00:09;23.30;99.90
25939;DHT22;13739;51.172;4.466;2022-08-04T10:02:38;23.50;99.90
25939;DHT22;13739;51.172;4.466;2022-08-04T10:05:10;23.70;99.90
25939;DHT22;13739;51.172;4.466;2022-08-04T10:08:01;23.80;99.90
25939;DHT22;13739;51.172;4.466;2022-08-04T10:16:22;24.10;99.90
25939;DHT22;13739;51.172;4.466;2022-08-04T10:24:38;24.20;99.90
25939;DHT22;13739;51.172;4.466;2022-08-04T10:30:04;24.20;99.90
25939;DHT22;13739;51.172;4.466;2022-08-04T10:33:03;24.50;99.90
25939;DHT22;13739;51.172;4.466;2022-08-04T10:35:37;24.70;99.90
25939;DHT22;13739;51.172;4.466;2022-08-04T10:38:27;24.80;99.90
25939;DHT22;13739;51.172;4.466;2022-08-04T10:48:33;24.80;99.90
25939;DHT22;13739;51.172;4.466;2022-08-04T10:51:08;24.80;99.90
25939;DHT22;13739;51.172;4.466;2022-08-04T10:53:37;24.60;99.90
25939;DHT22;13739;51.172;4.466;2022-08-04T10:56:10;24.80;99.90
25939;DHT22;13739;51.172;4.466;2022-08-04T10:58:49;24.90;99.90
25939;DHT22;13739;51.172;4.466;2022-08-04T11:01:22;24.60;99.90
25939;DHT22;13739;51.172;4.466;2022-08-04T11:04:03;25.00;99.90
25939;DHT22;13739;51.172;4.466;2022-08-04T11:06:31;24.90;99.90
25939;DHT22;13739;51.172;4.466;2022-08-04T11:09:00;24.90;99.90
25939;DHT22;13739;51.172;4.466;2022-08-04T11:11:48;24.60;99.90
25939;DHT22;13739;51.172;4.466;2022-08-04T11:14:23;24.90;99.90
25939;DHT22;13739;51.172;4.466;2022-08-04T11:17:00;25.00;99.90
25939;DHT22;13739;51.172;4.466;2022-08-04T11:22:07;25.00;99.90
25939;DHT22;13739;51.172;4.466;2022-08-04T11:27:34;25.00;99.90
25939;DHT22;13739;51.172;4.466;2022-08-04T11:30:05;25.40;99.90
25939;DHT22;13739;51.172;4.466;2022-08-04T11:35:10;25.50;99.90
25939;DHT22;13739;51.172;4.466;2022-08-04T11:37:54;25.60;99.90
25939;DHT22;13739;51.172;4.466;2022-08-04T11:40:42;25.90;99.90
25939;DHT22;13739;51.172;4.466;2022-08-04T11:43:17;26.00;99.90
25939;DHT22;13739;51.172;4.466;2022-08-04T11:45:57;25.80;99.90
25939;DHT22;13739;51.172;4.466;2022-08-04T11:48:44;26.10;99.90
25939;DHT22;13739;51.172;4.466;2022-08-04T11:51:12;26.10;99.90
25939;DHT22;13739;51.172;4.466;2022-08-04T11:53:38;26.00;99.90
25939;DHT22;13739;51.172;4.466;2022-08-04T11:56:09;25.60;99.90
25939;DHT22;13739;51.172;4.466;2022-08-04T11:58:36;25.60;99.90
25939;DHT22;13739;51.172;4.466;2022-08-04T12:01:14;25.60;99.90
25939;DHT22;13739;51.172;4.466;2022-08-04T12:03:55;25.80;99.90
25939;DHT22;13739;51.172;4.466;2022-08-04T12:06:59;26.10;99.90
25939;DHT22;13739;51.172;4.466;2022-08-04T12:09:46;26.50;99.90
25939;DHT22;13739;51.172;4.466;2022-08-04T12:12:27;26.50;99.90
25939;DHT22;13739;51.172;4.466;2022-08-04T12:15:04;26.10;99.90
25939;DHT22;13739;51.172;4.466;2022-08-04T12:17:39;26.30;99.90
25939;DHT22;13739;51.172;4.466;2022-08-04T12:20:09;26.70;99.90
25939;DHT22;13739;51.172;4.466;2022-08-04T12:22:44;27.10;99.90
25939;DHT22;13739;51.172;4.466;2022-08-04T12:25:19;27.10;99.90
25939;DHT22;13739;51.172;4.466;2022-08-04T12:27:52;27.00;99.90
25939;DHT22;13739;51.172;4.466;2022-08-04T12:30:18;27.00;99.90
25939;DHT22;13739;51.172;4.466;2022-08-04T12:33:09;27.20;99.90
25939;DHT22;13739;51.172;4.466;2022-08-04T12:35:38;27.10;99.90
25939;DHT22;13739;51.172;4.466;2022-08-04T12:38:14;27.20;99.90
25939;DHT22;13739;51.172;4.466;2022-08-04T12:40:48;27.30;99.90
25939;DHT22;13739;51.172;4.466;2022-08-04T12:43:16;27.60;99.90
25939;DHT22;13739;51.172;4.466;2022-08-04T12:45:47;28.00;99.90
25939;DHT22;13739;51.172;4.466;2022-08-04T12:48:15;28.10;99.70
25939;DHT22;13739;51.172;4.466;2022-08-04T12:50:50;28.00;99.90
25939;DHT22;13739;51.172;4.466;2022-08-04T12:53:17;28.40;99.40
25939;DHT22;13739;51.172;4.466;2022-08-04T12:55:47;28.50;98.90
25939;DHT22;13739;51.172;4.466;2022-08-04T12:58:20;28.20;99.90
25939;DHT22;13739;51.172;4.466;2022-08-04T13:00:55;28.50;99.30
25939;DHT22;13739;51.172;4.466;2022-08-04T13:03:25;28.30;99.80
25939;DHT22;13739;51.172;4.466;2022-08-04T13:05:53;28.20;99.00
25939;DHT22;13739;51.172;4.466;2022-08-04T13:08:20;27.90;98.90
25939;DHT22;13739;51.172;4.466;2022-08-04T13:10:48;28.00;98.80
25939;DHT22;13739;51.172;4.466;2022-08-04T13:13:17;28.10;99.30
25939;DHT22;13739;51.172;4.466;2022-08-04T13:16:00;27.90;98.40
25939;DHT22;13739;51.172;4.466;2022-08-04T13:18:29;27.90;98.60
25939;DHT22;13739;51.172;4.466;2022-08-04T13:20:55;28.10;98.10
25939;DHT22;13739;51.172;4.466;2022-08-04T13:23:25;27.90;98.20
25939;DHT22;13739;51.172;4.466;2022-08-04T13:25:54;27.70;98.80
25939;DHT22;13739;51.172;4.466;2022-08-04T13:28:26;27.70;99.00
25939;DHT22;13739;51.172;4.466;2022-08-04T13:30:55;27.60;98.90
25939;DHT22;13739;51.172;4.466;2022-08-04T13:33:26;28.00;98.60
25939;DHT22;13739;51.172;4.466;2022-08-04T13:35:52;28.10;98.10
25939;DHT22;13739;51.172;4.466;2022-08-04T13:38:19;28.10;98.10
25939;DHT22;13739;51.172;4.466;2022-08-04T13:40:45;28.30;97.80
25939;DHT22;13739;51.172;4.466;2022-08-04T13:43:31;28.20;97.20
25939;DHT22;13739;51.172;4.466;2022-08-04T13:46:01;28.40;97.30
25939;DHT22;13739;51.172;4.466;2022-08-04T13:48:46;28.10;97.30
25939;DHT22;13739;51.172;4.466;2022-08-04T13:51:17;28.10;98.00
25939;DHT22;13739;51.172;4.466;2022-08-04T13:53:43;28.10;97.50
25939;DHT22;13739;51.172;4.466;2022-08-04T13:56:09;28.00;97.40
25939;DHT22;13739;51.172;4.466;2022-08-04T13:58:46;28.10;96.90
25939;DHT22;13739;51.172;4.466;2022-08-04T14:01:24;28.20;97.20
25939;DHT22;13739;51.172;4.466;2022-08-04T14:03:58;28.10;97.20
25939;DHT22;13739;51.172;4.466;2022-08-04T14:06:34;28.20;96.80
25939;DHT22;13739;51.172;4.466;2022-08-04T14:09:09;28.30;96.80
25939;DHT22;13739;51.172;4.466;2022-08-04T14:11:41;28.10;96.80
25939;DHT22;13739;51.172;4.466;2022-08-04T14:14:26;28.10;97.00
25939;DHT22;13739;51.172;4.466;2022-08-04T14:19:25;28.30;96.90
25939;DHT22;13739;51.172;4.466;2022-08-04T14:21:51;28.30;96.40
25939;DHT22;13739;51.172;4.466;2022-08-04T14:24:27;28.20;96.60
25939;DHT22;13739;51.172;4.466;2022-08-04T14:26:58;28.30;96.20
25939;DHT22;13739;51.172;4.466;2022-08-04T14:29:25;28.30;96.20
25939;DHT22;13739;51.172;4.466;2022-08-04T14:32:01;28.80;96.20
25939;DHT22;13739;51.172;4.466;2022-08-04T14:34:28;29.40;95.30
25939;DHT22;13739;51.172;4.466;2022-08-04T14:36:55;29.60;94.40
25939;DHT22;13739;51.172;4.466;2022-08-04T14:39:38;29.90;93.90
25939;DHT22;13739;51.172;4.466;2022-08-04T14:42:05;30.00;93.60
25939;DHT22;13739;51.172;4.466;2022-08-04T14:44:31;29.60;93.80
25939;DHT22;13739;51.172;4.466;2022-08-04T14:46:57;29.30;94.20
25939;DHT22;13739;51.172;4.466;2022-08-04T14:49:26;28.70;95.40
25939;DHT22;13739;51.172;4.466;2022-08-04T14:51:54;28.40;96.00
25939;DHT22;13739;51.172;4.466;2022-08-04T14:54:28;28.80;96.00
25939;DHT22;13739;51.172;4.466;2022-08-04T14:56:56;28.80;95.50
25939;DHT22;13739;51.172;4.466;2022-08-04T14:59:22;29.00;95.60
25939;DHT22;13739;51.172;4.466;2022-08-04T15:01:49;29.20;95.20
25939;DHT22;13739;51.172;4.466;2022-08-04T15:04:15;29.10;95.20
25939;DHT22;13739;51.172;4.466;2022-08-04T15:06:42;28.90;95.40
25939;DHT22;13739;51.172;4.466;2022-08-04T15:09:09;28.50;96.50
25939;DHT22;13739;51.172;4.466;2022-08-04T15:11:36;28.40;96.50
25939;DHT22;13739;51.172;4.466;2022-08-04T15:14:02;28.70;96.50
25939;DHT22;13739;51.172;4.466;2022-08-04T15:16:30;28.80;95.70
25939;DHT22;13739;51.172;4.466;2022-08-04T15:18:56;28.80;95.70
25939;DHT22;13739;51.172;4.466;2022-08-04T15:21:24;28.90;96.00
25939;DHT22;13739;51.172;4.466;2022-08-04T15:23:50;29.70;94.90
25939;DHT22;13739;51.172;4.466;2022-08-04T15:26:29;30.30;93.60
25939;DHT22;13739;51.172;4.466;2022-08-04T15:29:00;30.10;93.50
25939;DHT22;13739;51.172;4.466;2022-08-04T15:31:27;30.70;93.20
25939;DHT22;13739;51.172;4.466;2022-08-04T15:33:54;31.40;92.50
25939;DHT22;13739;51.172;4.466;2022-08-04T15:36:30;31.70;91.90
25939;DHT22;13739;51.172;4.466;2022-08-04T15:41:46;30.40;92.20
25939;DHT22;13739;51.172;4.466;2022-08-04T15:49:22;29.90;93.20
25939;DHT22;13739;51.172;4.466;2022-08-04T15:52:05;29.80;93.30
25939;DHT22;13739;51.172;4.466;2022-08-04T15:54:31;30.10;93.00
25939;DHT22;13739;51.172;4.466;2022-08-04T15:56:57;29.40;93.40
25939;DHT22;13739;51.172;4.466;2022-08-04T15:59:55;28.80;94.60
25939;DHT22;13739;51.172;4.466;2022-08-04T16:07:57;29.90;93.00
25939;DHT22;13739;51.172;4.466;2022-08-04T16:13:17;29.50;93.70
25939;DHT22;13739;51.172;4.466;2022-08-04T16:15:53;30.10;93.50
25939;DHT22;13739;51.172;4.466;2022-08-04T16:20:55;30.80;92.60
25939;DHT22;13739;51.172;4.466;2022-08-04T16:25:47;29.80;92.80
25939;DHT22;13739;51.172;4.466;2022-08-04T16:31:01;29.20;93.50
25939;DHT22;13739;51.172;4.466;2022-08-04T16:33:29;29.20;93.90
25939;DHT22;13739;51.172;4.466;2022-08-04T16:35:59;29.70;93.10
25939;DHT22;13739;51.172;4.466;2022-08-04T16:38:25;29.60;93.30
25939;DHT22;13739;51.172;4.466;2022-08-04T16:40:56;30.00;93.10
25939;DHT22;13739;51.172;4.466;2022-08-04T16:43:26;29.60;92.90
25939;DHT22;13739;51.172;4.466;2022-08-04T16:48:27;29.70;93.10
25939;DHT22;13739;51.172;4.466;2022-08-04T16:53:23;30.00;92.60
25939;DHT22;13739;51.172;4.466;2022-08-04T16:55:50;29.60;92.50
25939;DHT22;13739;51.172;4.466;2022-08-04T16:58:23;29.10;93.10
25939;DHT22;13739;51.172;4.466;2022-08-04T17:00:48;29.00;93.60
25939;DHT22;13739;51.172;4.466;2022-08-04T17:03:15;28.80;93.70
25939;DHT22;13739;51.172;4.466;2022-08-04T17:05:40;29.00;93.30
25939;DHT22;13739;51.172;4.466;2022-08-04T17:08:09;28.80;93.10
25939;DHT22;13739;51.172;4.466;2022-08-04T17:10:43;28.50;93.40
25939;DHT22;13739;51.172;4.466;2022-08-04T17:13:28;28.10;93.50
25939;DHT22;13739;51.172;4.466;2022-08-04T17:15:57;27.70;93.90
25939;DHT22;13739;51.172;4.466;2022-08-04T17:18:35;27.90;93.90
25939;DHT22;13739;51.172;4.466;2022-08-04T17:21:05;27.70;93.70
25939;DHT22;13739;51.172;4.466;2022-08-04T17:23:39;27.70;93.90
25939;DHT22;13739;51.172;4.466;2022-08-04T17:26:14;27.50;94.20
25939;DHT22;13739;51.172;4.466;2022-08-04T17:28:41;27.30;94.40
25939;DHT22;13739;51.172;4.466;2022-08-04T17:31:10;27.00;95.00
25939;DHT22;13739;51.172;4.466;2022-08-04T17:33:38;26.90;94.90
25939;DHT22;13739;51.172;4.466;2022-08-04T17:36:05;26.50;95.30
25939;DHT22;13739;51.172;4.466;2022-08-04T17:41:02;26.50;95.50
25939;DHT22;13739;51.172;4.466;2022-08-04T17:43:46;26.00;96.70
25939;DHT22;13739;51.172;4.466;2022-08-04T17:48:41;26.00;96.50
25939;DHT22;13739;51.172;4.466;2022-08-04T17:51:16;26.10;96.60
25939;DHT22;13739;51.172;4.466;2022-08-04T17:53:43;25.80;96.60
25939;DHT22;13739;51.172;4.466;2022-08-04T17:56:47;25.70;96.60
25939;DHT22;13739;51.172;4.466;2022-08-04T18:01:58;25.40;97.10
25939;DHT22;13739;51.172;4.466;2022-08-04T18:04:37;25.20;97.40
25939;DHT22;13739;51.172;4.466;2022-08-04T18:12:25;25.10;97.70
25939;DHT22;13739;51.172;4.466;2022-08-04T18:15:00;25.10;97.50
25939;DHT22;13739;51.172;4.466;2022-08-04T18:17:40;24.90;97.60
25939;DHT22;13739;51.172;4.466;2022-08-04T18:20:14;24.90;97.70
25939;DHT22;13739;51.172;4.466;2022-08-04T18:22:41;24.90;97.70
25939;DHT22;13739;51.172;4.466;2022-08-04T18:25:08;24.90;97.70
25939;DHT22;13739;51.172;4.466;2022-08-04T18:27:34;24.70;97.80
25939;DHT22;13739;51.172;4.466;2022-08-04T18:30:10;24.60;98.00
25939;DHT22;13739;51.172;4.466;2022-08-04T18:32:36;24.60;97.80
25939;DHT22;13739;51.172;4.466;2022-08-04T18:35:01;24.60;97.80
25939;DHT22;13739;51.172;4.466;2022-08-04T18:37:27;24.60;97.70
25939;DHT22;13739;51.172;4.466;2022-08-04T18:39:53;24.50;97.80
25939;DHT22;13739;51.172;4.466;2022-08-04T18:42:18;24.40;97.90
25939;DHT22;13739;51.172;4.466;2022-08-04T18:44:44;24.50;97.90
25939;DHT22;13739;51.172;4.466;2022-08-04T18:47:09;24.50;97.80
25939;DHT22;13739;51.172;4.466;2022-08-04T18:49:35;24.20;98.20
25939;DHT22;13739;51.172;4.466;2022-08-04T18:52:02;24.20;98.20
25939;DHT22;13739;51.172;4.466;2022-08-04T18:54:27;24.20;98.10
25939;DHT22;13739;51.172;4.466;2022-08-04T18:56:53;24.30;99.20
25939;DHT22;13739;51.172;4.466;2022-08-04T18:59:20;23.90;99.90
25939;DHT22;13739;51.172;4.466;2022-08-04T19:01:46;23.50;99.90
25939;DHT22;13739;51.172;4.466;2022-08-04T19:04:12;23.30;99.90
25939;DHT22;13739;51.172;4.466;2022-08-04T19:06:38;23.10;99.90
25939;DHT22;13739;51.172;4.466;2022-08-04T19:09:06;23.10;99.90
25939;DHT22;13739;51.172;4.466;2022-08-04T19:11:32;23.20;99.90
25939;DHT22;13739;51.172;4.466;2022-08-04T19:14:03;23.20;99.90
25939;DHT22;13739;51.172;4.466;2022-08-04T19:16:30;23.10;99.90
25939;DHT22;13739;51.172;4.466;2022-08-04T19:19:00;22.90;99.90
25939;DHT22;13739;51.172;4.466;2022-08-04T19:21:28;23.00;99.90
25939;DHT22;13739;51.172;4.466;2022-08-04T19:23:53;22.90;99.90
25939;DHT22;13739;51.172;4.466;2022-08-04T19:26:20;22.90;99.90
25939;DHT22;13739;51.172;4.466;2022-08-04T19:28:47;22.90;99.90
25939;DHT22;13739;51.172;4.466;2022-08-04T19:31:14;23.00;99.90
25939;DHT22;13739;51.172;4.466;2022-08-04T19:33:40;23.20;99.90
25939;DHT22;13739;51.172;4.466;2022-08-04T19:36:07;23.30;99.90
25939;DHT22;13739;51.172;4.466;2022-08-04T19:38:33;23.20;99.90
25939;DHT22;13739;51.172;4.466;2022-08-04T19:40:59;23.30;99.90
25939;DHT22;13739;51.172;4.466;2022-08-04T19:43:25;23.30;99.90
25939;DHT22;13739;51.172;4.466;2022-08-04T19:45:51;23.30;99.90
25939;DHT22;13739;51.172;4.466;2022-08-04T19:48:17;23.20;99.90
25939;DHT22;13739;51.172;4.466;2022-08-04T19:50:42;23.30;99.90
25939;DHT22;13739;51.172;4.466;2022-08-04T19:53:08;23.40;99.90
25939;DHT22;13739;51.172;4.466;2022-08-04T19:55:34;23.40;99.90
25939;DHT22;13739;51.172;4.466;2022-08-04T19:58:03;23.40;99.90